sensor_id;sensor_type;location;lat;lon;timestamp;temperature;humidity
19220;DHT22;9744;49.364;7.484;2023-03-21T00:00:02;7.10;99.90
19220;DHT22;9744;49.364;7.484;2023-03-21T00:02:30;7.10;99.90
19220;DHT22;9744;49.364;7.484;2023-03-21T00:04:59;7.10;99.90
19220;DHT22;9744;49.364;7.484;2023-03-21T00:07:27;7.10;99.90
19220;DHT22;9744;49.364;7.484;2023-03-21T00:09:54;7.10;99.90
19220;DHT22;9744;49.364;7.484;2023-03-21T00:12:21;7.00;99.90
19220;DHT22;9744;49.364;7.484;2023-03-21T00:14:49;7.00;99.90
19220;DHT22;9744;49.364;7.484;2023-03-21T00:17:18;6.90;99.90
19220;DHT22;9744;49.364;7.484;2023-03-21T00:19:47;6.90;99.90
19220;DHT22;9744;49.364;7.484;2023-03-21T00:22:16;6.90;99.90
19220;DHT22;9744;49.364;7.484;2023-03-21T00:24:43;6.80;99.90
19220;DHT22;9744;49.364;7.484;2023-03-21T00:27:10;6.80;99.90
19220;DHT22;9744;49.364;7.484;2023-03-21T00:29:38;6.80;99.90
19220;DHT22;9744;49.364;7.484;2023-03-21T00:32:05;6.80;99.90
19220;DHT22;9744;49.364;7.484;2023-03-21T00:34:33;6.80;99.90
19220;DHT22;9744;49.364;7.484;2023-03-21T00:37:03;6.70;99.90
19220;DHT22;9744;49.364;7.484;2023-03-21T00:39:33;6.70;99.90
19220;DHT22;9744;49.364;7.484;2023-03-21T00:42:01;6.80;99.90
19220;DHT22;9744;49.364;7.484;2023-03-21T00:44:28;6.70;99.90
19220;DHT22;9744;49.364;7.484;2023-03-21T00:47:01;6.70;99.90
19220;DHT22;9744;49.364;7.484;2023-03-21T00:49:28;6.60;99.90
19220;DHT22;9744;49.364;7.484;2023-03-21T00:52:01;6.70;99.90
19220;DHT22;9744;49.364;7.484;2023-03-21T00:54:30;6.70;99.90
19220;DHT22;9744;49.364;7.484;2023-03-21T00:56:59;6.80;99.90
19220;DHT22;9744;49.364;7.484;2023-03-21T00:59:29;6.90;99.90
19220;DHT22;9744;49.364;7.484;2023-03-21T01:01:56;6.80;99.90
19220;DHT22;9744;49.364;7.484;2023-03-21T01:04:25;6.80;99.90
19220;DHT22;9744;49.364;7.484;2023-03-21T01:06:55;6.70;99.90
19220;DHT22;9744;49.364;7.484;2023-03-21T01:09:23;6.70;99.90
19220;DHT22;9744;49.364;7.484;2023-03-21T01:11:51;6.70;99.90
19220;DHT22;9744;49.364;7.484;2023-03-21T01:14:21;6.60;99.90
19220;DHT22;9744;49.364;7.484;2023-03-21T01:16:50;6.60;99.90
19220;DHT22;9744;49.364;7.484;2023-03-21T01:19:20;6.60;99.90
19220;DHT22;9744;49.364;7.484;2023-03-21T01:21:48;6.60;99.90
19220;DHT22;9744;49.364;7.484;2023-03-21T01:24:15;6.60;99.90
19220;DHT22;9744;49.364;7.484;2023-03-21T01:26:42;6.60;99.90
19220;DHT22;9744;49.364;7.484;2023-03-21T01:29:09;6.60;99.90
19220;DHT22;9744;49.364;7.484;2023-03-21T01:31:38;6.60;99.90
19220;DHT22;9744;49.364;7.484;2023-03-21T01:34:06;6.60;99.90
19220;DHT22;9744;49.364;7.484;2023-03-21T01:36:33;6.60;99.90
19220;DHT22;9744;49.364;7.484;2023-03-21T01:39:04;6.60;99.90
19220;DHT22;9744;49.364;7.484;2023-03-21T01:41:34;6.60;99.90
19220;DHT22;9744;49.364;7.484;2023-03-21T01:44:03;6.60;99.90
19220;DHT22;9744;49.364;7.484;2023-03-21T01:46:40;6.60;99.90
19220;DHT22;9744;49.364;7.484;2023-03-21T01:49:32;6.70;99.90
19220;DHT22;9744;49.364;7.484;2023-03-21T01:52:17;6.80;99.90
19220;DHT22;9744;49.364;7.484;2023-03-21T01:54:46;6.80;99.90
19220;DHT22;9744;49.364;7.484;2023-03-21T01:57:17;6.70;99.90
19220;DHT22;9744;49.364;7.484;2023-03-21T01:59:50;6.70;99.90
19220;DHT22;9744;49.364;7.484;2023-03-21T02:02:47;6.60;99.90
19220;DHT22;9744;49.364;7.484;2023-03-21T02:05:58;6.60;99.90
19220;DHT22;9744;49.364;7.484;2023-03-21T02:08:32;6.50;99.90
19220;DHT22;9744;49.364;7.484;2023-03-21T02:11:06;6.50;99.90
19220;DHT22;9744;49.364;7.484;2023-03-21T02:13:40;6.50;99.90
19220;DHT22;9744;49.364;7.484;2023-03-21T02:16:16;6.50;99.90
19220;DHT22;9744;49.364;7.484;2023-03-21T02:18:55;6.50;99.90
19220;DHT22;9744;49.364;7.484;2023-03-21T02:21:54;6.50;99.90
19220;DHT22;9744;49.364;7.484;2023-03-21T02:27:30;6.50;99.90
19220;DHT22;9744;49.364;7.484;2023-03-21T02:30:34;6.50;99.90
19220;DHT22;9744;49.364;7.484;2023-03-21T02:33:21;6.50;99.90
19220;DHT22;9744;49.364;7.484;2023-03-21T02:38:55;6.40;99.90
19220;DHT22;9744;49.364;7.484;2023-03-21T02:41:32;6.30;99.90
19220;DHT22;9744;49.364;7.484;2023-03-21T02:44:06;6.30;99.90
19220;DHT22;9744;49.364;7.484;2023-03-21T02:46:43;6.20;99.90
19220;DHT22;9744;49.364;7.484;2023-03-21T02:49:20;6.20;99.90
19220;DHT22;9744;49.364;7.484;2023-03-21T02:51:49;6.10;99.90
19220;DHT22;9744;49.364;7.484;2023-03-21T02:54:20;6.10;99.90
19220;DHT22;9744;49.364;7.484;2023-03-21T02:56:51;6.10;99.90
19220;DHT22;9744;49.364;7.484;2023-03-21T02:59:22;6.10;99.90
19220;DHT22;9744;49.364;7.484;2023-03-21T03:01:50;6.00;99.90
19220;DHT22;9744;49.364;7.484;2023-03-21T03:04:19;6.00;99.90
19220;DHT22;9744;49.364;7.484;2023-03-21T03:06:59;6.00;99.90
19220;DHT22;9744;49.364;7.484;2023-03-21T03:09:38;6.00;99.90
19220;DHT22;9744;49.364;7.484;2023-03-21T03:12:14;5.90;99.90
19220;DHT22;9744;49.364;7.484;2023-03-21T03:14:52;5.80;99.90
19220;DHT22;9744;49.364;7.484;2023-03-21T03:17:31;5.70;99.90
19220;DHT22;9744;49.364;7.484;2023-03-21T03:20:13;5.70;99.90
19220;DHT22;9744;49.364;7.484;2023-03-21T03:22:51;5.70;99.90
19220;DHT22;9744;49.364;7.484;2023-03-21T03:25:26;5.70;99.90
19220;DHT22;9744;49.364;7.484;2023-03-21T03:27:55;5.60;99.90
19220;DHT22;9744;49.364;7.484;2023-03-21T03:30:25;5.60;99.90
19220;DHT22;9744;49.364;7.484;2023-03-21T03:32:56;5.60;99.90
19220;DHT22;9744;49.364;7.484;2023-03-21T03:35:27;5.50;99.90
19220;DHT22;9744;49.364;7.484;2023-03-21T03:37:59;5.50;99.90
19220;DHT22;9744;49.364;7.484;2023-03-21T03:40:29;5.50;99.90
19220;DHT22;9744;49.364;7.484;2023-03-21T03:43:11;5.50;99.90
19220;DHT22;9744;49.364;7.484;2023-03-21T03:45:44;5.50;99.90
19220;DHT22;9744;49.364;7.484;2023-03-21T03:48:17;5.50;99.90
19220;DHT22;9744;49.364;7.484;2023-03-21T03:50:53;5.40;99.90
19220;DHT22;9744;49.364;7.484;2023-03-21T03:53:36;5.40;99.90
19220;DHT22;9744;49.364;7.484;2023-03-21T03:56:07;5.30;99.90
19220;DHT22;9744;49.364;7.484;2023-03-21T03:58:39;5.30;99.90
19220;DHT22;9744;49.364;7.484;2023-03-21T04:01:07;5.30;99.90
19220;DHT22;9744;49.364;7.484;2023-03-21T04:03:36;5.30;99.90
19220;DHT22;9744;49.364;7.484;2023-03-21T04:06:07;5.30;99.90
19220;DHT22;9744;49.364;7.484;2023-03-21T04:08:34;5.30;99.90
19220;DHT22;9744;49.364;7.484;2023-03-21T04:11:03;5.30;99.90
19220;DHT22;9744;49.364;7.484;2023-03-21T04:13:36;5.30;99.90
19220;DHT22;9744;49.364;7.484;2023-03-21T04:16:09;5.30;99.90
19220;DHT22;9744;49.364;7.484;2023-03-21T04:18:38;5.30;99.90
19220;DHT22;9744;49.364;7.484;2023-03-21T04:21:08;5.40;99.90
19220;DHT22;9744;49.364;7.484;2023-03-21T04:23:36;5.40;99.90
19220;DHT22;9744;49.364;7.484;2023-03-21T04:26:03;5.40;99.90
19220;DHT22;9744;49.364;7.484;2023-03-21T04:28:37;5.40;99.90
19220;DHT22;9744;49.364;7.484;2023-03-21T04:31:42;5.40;99.90
19220;DHT22;9744;49.364;7.484;2023-03-21T04:34:11;5.40;99.90
19220;DHT22;9744;49.364;7.484;2023-03-21T04:36:44;5.40;99.90
19220;DHT22;9744;49.364;7.484;2023-03-21T04:39:12;5.40;99.90
19220;DHT22;9744;49.364;7.484;2023-03-21T04:41:43;5.30;99.90
19220;DHT22;9744;49.364;7.484;2023-03-21T04:44:13;5.40;99.90
19220;DHT22;9744;49.364;7.484;2023-03-21T04:46:41;5.30;99.90
19220;DHT22;9744;49.364;7.484;2023-03-21T04:49:09;5.30;99.90
19220;DHT22;9744;49.364;7.484;2023-03-21T04:51:37;5.30;99.90
19220;DHT22;9744;49.364;7.484;2023-03-21T04:54:08;5.30;99.90
19220;DHT22;9744;49.364;7.484;2023-03-21T04:56:38;5.30;99.90
19220;DHT22;9744;49.364;7.484;2023-03-21T04:59:07;5.40;99.90
19220;DHT22;9744;49.364;7.484;2023-03-21T05:01:36;5.40;99.90
19220;DHT22;9744;49.364;7.484;2023-03-21T05:04:06;5.40;99.90
19220;DHT22;9744;49.364;7.484;2023-03-21T05:06:34;5.50;99.90
19220;DHT22;9744;49.364;7.484;2023-03-21T05:09:03;5.50;99.90
19220;DHT22;9744;49.364;7.484;2023-03-21T05:11:35;5.50;99.90
19220;DHT22;9744;49.364;7.484;2023-03-21T05:14:04;5.50;99.90
19220;DHT22;9744;49.364;7.484;2023-03-21T05:16:31;5.50;99.90
19220;DHT22;9744;49.364;7.484;2023-03-21T05:19:06;5.50;99.90
19220;DHT22;9744;49.364;7.484;2023-03-21T05:21:39;5.60;99.90
19220;DHT22;9744;49.364;7.484;2023-03-21T05:24:13;5.60;99.90
19220;DHT22;9744;49.364;7.484;2023-03-21T05:26:41;5.60;99.90
19220;DHT22;9744;49.364;7.484;2023-03-21T05:29:13;5.60;99.90
19220;DHT22;9744;49.364;7.484;2023-03-21T05:31:41;5.60;99.90
19220;DHT22;9744;49.364;7.484;2023-03-21T05:34:13;5.60;99.90
19220;DHT22;9744;49.364;7.484;2023-03-21T05:36:43;5.60;99.90
19220;DHT22;9744;49.364;7.484;2023-03-21T05:39:11;5.70;99.90
19220;DHT22;9744;49.364;7.484;2023-03-21T05:41:44;5.70;99.90
19220;DHT22;9744;49.364;7.484;2023-03-21T05:44:12;5.70;99.90
19220;DHT22;9744;49.364;7.484;2023-03-21T05:46:40;5.70;99.90
19220;DHT22;9744;49.364;7.484;2023-03-21T05:49:09;5.70;99.90
19220;DHT22;9744;49.364;7.484;2023-03-21T05:51:38;5.70;99.90
19220;DHT22;9744;49.364;7.484;2023-03-21T05:54:06;5.70;99.90
19220;DHT22;9744;49.364;7.484;2023-03-21T05:56:33;5.70;99.90
19220;DHT22;9744;49.364;7.484;2023-03-21T05:59:04;5.70;99.90
19220;DHT22;9744;49.364;7.484;2023-03-21T06:01:36;5.80;99.90
19220;DHT22;9744;49.364;7.484;2023-03-21T06:04:14;5.80;99.90
19220;DHT22;9744;49.364;7.484;2023-03-21T06:06:42;5.80;99.90
19220;DHT22;9744;49.364;7.484;2023-03-21T06:09:10;5.80;99.90
19220;DHT22;9744;49.364;7.484;2023-03-21T06:11:45;5.80;99.90
19220;DHT22;9744;49.364;7.484;2023-03-21T06:14:26;5.80;99.90
19220;DHT22;9744;49.364;7.484;2023-03-21T06:17:20;5.80;99.90
19220;DHT22;9744;49.364;7.484;2023-03-21T06:19:53;5.90;99.90
19220;DHT22;9744;49.364;7.484;2023-03-21T06:22:29;5.90;99.90
19220;DHT22;9744;49.364;7.484;2023-03-21T06:24:56;5.90;99.90
19220;DHT22;9744;49.364;7.484;2023-03-21T06:27:23;5.90;99.90
19220;DHT22;9744;49.364;7.484;2023-03-21T06:29:53;6.00;99.90
19220;DHT22;9744;49.364;7.484;2023-03-21T06:32:23;6.00;99.90
19220;DHT22;9744;49.364;7.484;2023-03-21T06:34:55;6.00;99.90
19220;DHT22;9744;49.364;7.484;2023-03-21T06:37:24;6.10;99.90
19220;DHT22;9744;49.364;7.484;2023-03-21T06:39:53;6.10;99.90
19220;DHT22;9744;49.364;7.484;2023-03-21T06:42:21;6.10;99.90
19220;DHT22;9744;49.364;7.484;2023-03-21T06:44:48;6.10;99.90
19220;DHT22;9744;49.364;7.484;2023-03-21T06:47:20;6.20;99.90
19220;DHT22;9744;49.364;7.484;2023-03-21T06:49:48;6.20;99.90
19220;DHT22;9744;49.364;7.484;2023-03-21T06:52:17;6.20;99.90
19220;DHT22;9744;49.364;7.484;2023-03-21T06:54:45;6.30;99.90
19220;DHT22;9744;49.364;7.484;2023-03-21T06:57:16;6.30;99.90
19220;DHT22;9744;49.364;7.484;2023-03-21T06:59:47;6.40;99.90
19220;DHT22;9744;49.364;7.484;2023-03-21T07:02:19;6.50;99.90
19220;DHT22;9744;49.364;7.484;2023-03-21T07:05:02;6.50;99.90
19220;DHT22;9744;49.364;7.484;2023-03-21T07:07:30;6.60;99.90
19220;DHT22;9744;49.364;7.484;2023-03-21T07:09:57;6.60;99.90
19220;DHT22;9744;49.364;7.484;2023-03-21T07:12:29;6.60;99.90
19220;DHT22;9744;49.364;7.484;2023-03-21T07:15:13;6.60;99.90
19220;DHT22;9744;49.364;7.484;2023-03-21T07:17:43;6.70;99.90
19220;DHT22;9744;49.364;7.484;2023-03-21T07:20:11;6.80;99.90
19220;DHT22;9744;49.364;7.484;2023-03-21T07:22:39;6.90;99.90
19220;DHT22;9744;49.364;7.484;2023-03-21T07:25:07;7.00;99.90
19220;DHT22;9744;49.364;7.484;2023-03-21T07:27:40;7.00;99.90
19220;DHT22;9744;49.364;7.484;2023-03-21T07:30:09;7.00;99.90
19220;DHT22;9744;49.364;7.484;2023-03-21T07:32:37;7.00;99.90
19220;DHT22;9744;49.364;7.484;2023-03-21T07:35:05;7.00;99.90
19220;DHT22;9744;49.364;7.484;2023-03-21T07:37:33;7.10;99.90
19220;DHT22;9744;49.364;7.484;2023-03-21T07:40:00;7.20;99.90
19220;DHT22;9744;49.364;7.484;2023-03-21T07:42:34;7.20;99.90
19220;DHT22;9744;49.364;7.484;2023-03-21T07:45:03;7.30;99.90
19220;DHT22;9744;49.364;7.484;2023-03-21T07:47:33;7.40;99.90
19220;DHT22;9744;49.364;7.484;2023-03-21T07:50:00;7.40;99.90
19220;DHT22;9744;49.364;7.484;2023-03-21T07:52:29;7.40;99.90
19220;DHT22;9744;49.364;7.484;2023-03-21T07:54:56;7.40;99.90
19220;DHT22;9744;49.364;7.484;2023-03-21T07:57:23;7.50;99.90
19220;DHT22;9744;49.364;7.484;2023-03-21T07:59:50;7.50;99.90
19220;DHT22;9744;49.364;7.484;2023-03-21T08:02:19;7.70;99.90
19220;DHT22;9744;49.364;7.484;2023-03-21T08:04:46;7.80;99.90
19220;DHT22;9744;49.364;7.484;2023-03-21T08:07:13;7.80;99.90
19220;DHT22;9744;49.364;7.484;2023-03-21T08:09:42;7.80;99.90
19220;DHT22;9744;49.364;7.484;2023-03-21T08:12:09;7.80;99.90
19220;DHT22;9744;49.364;7.484;2023-03-21T08:14:37;7.80;99.90
19220;DHT22;9744;49.364;7.484;2023-03-21T08:17:05;7.90;99.90
19220;DHT22;9744;49.364;7.484;2023-03-21T08:19:35;7.90;99.90
19220;DHT22;9744;49.364;7.484;2023-03-21T08:22:03;7.90;99.90
19220;DHT22;9744;49.364;7.484;2023-03-21T08:24:31;8.00;99.90
19220;DHT22;9744;49.364;7.484;2023-03-21T08:26:59;8.00;99.90
19220;DHT22;9744;49.364;7.484;2023-03-21T08:29:26;7.90;99.90
19220;DHT22;9744;49.364;7.484;2023-03-21T08:31:53;8.00;99.90
19220;DHT22;9744;49.364;7.484;2023-03-21T08:34:20;8.00;99.90
19220;DHT22;9744;49.364;7.484;2023-03-21T08:36:50;8.00;99.90
19220;DHT22;9744;49.364;7.484;2023-03-21T08:39:17;8.10;99.90
19220;DHT22;9744;49.364;7.484;2023-03-21T08:41:46;8.20;99.90
19220;DHT22;9744;49.364;7.484;2023-03-21T08:44:13;8.30;99.90
19220;DHT22;9744;49.364;7.484;2023-03-21T08:46:42;8.40;99.90
19220;DHT22;9744;49.364;7.484;2023-03-21T08:49:09;8.50;99.90
19220;DHT22;9744;49.364;7.484;2023-03-21T08:51:37;8.60;99.90
19220;DHT22;9744;49.364;7.484;2023-03-21T08:54:09;8.70;99.90
19220;DHT22;9744;49.364;7.484;2023-03-21T08:56:42;8.70;99.90
19220;DHT22;9744;49.364;7.484;2023-03-21T08:59:09;8.70;99.90
19220;DHT22;9744;49.364;7.484;2023-03-21T09:01:36;8.80;99.90
19220;DHT22;9744;49.364;7.484;2023-03-21T09:04:04;8.80;99.90
19220;DHT22;9744;49.364;7.484;2023-03-21T09:06:35;8.80;99.90
19220;DHT22;9744;49.364;7.484;2023-03-21T09:09:03;8.80;99.90
19220;DHT22;9744;49.364;7.484;2023-03-21T09:11:34;8.90;99.90
19220;DHT22;9744;49.364;7.484;2023-03-21T09:14:01;8.90;99.90
19220;DHT22;9744;49.364;7.484;2023-03-21T09:16:28;8.90;99.90
19220;DHT22;9744;49.364;7.484;2023-03-21T09:18:56;8.90;99.90
19220;DHT22;9744;49.364;7.484;2023-03-21T09:21:24;8.90;99.90
19220;DHT22;9744;49.364;7.484;2023-03-21T09:23:52;8.80;99.90
19220;DHT22;9744;49.364;7.484;2023-03-21T09:26:21;8.80;99.90
19220;DHT22;9744;49.364;7.484;2023-03-21T09:28:50;8.90;99.90
19220;DHT22;9744;49.364;7.484;2023-03-21T09:31:18;8.90;99.90
19220;DHT22;9744;49.364;7.484;2023-03-21T09:33:47;8.90;99.90
19220;DHT22;9744;49.364;7.484;2023-03-21T09:36:15;8.90;99.90
19220;DHT22;9744;49.364;7.484;2023-03-21T09:38:44;8.90;99.90
19220;DHT22;9744;49.364;7.484;2023-03-21T09:41:44;9.00;99.90
19220;DHT22;9744;49.364;7.484;2023-03-21T09:44:30;9.10;99.90
19220;DHT22;9744;49.364;7.484;2023-03-21T09:47:04;9.10;99.90
19220;DHT22;9744;49.364;7.484;2023-03-21T09:49:39;9.00;99.90
19220;DHT22;9744;49.364;7.484;2023-03-21T09:52:12;9.10;99.90
19220;DHT22;9744;49.364;7.484;2023-03-21T09:54:42;9.20;99.90
19220;DHT22;9744;49.364;7.484;2023-03-21T09:57:17;9.20;99.90
19220;DHT22;9744;49.364;7.484;2023-03-21T09:59:50;9.30;99.90
19220;DHT22;9744;49.364;7.484;2023-03-21T10:02:35;9.40;99.90
19220;DHT22;9744;49.364;7.484;2023-03-21T10:05:11;9.50;99.90
19220;DHT22;9744;49.364;7.484;2023-03-21T10:07:41;9.80;99.90
19220;DHT22;9744;49.364;7.484;2023-03-21T10:10:15;9.90;99.90
19220;DHT22;9744;49.364;7.484;2023-03-21T10:12:44;10.10;99.90
19220;DHT22;9744;49.364;7.484;2023-03-21T10:15:19;10.30;99.90
19220;DHT22;9744;49.364;7.484;2023-03-21T10:17:58;10.40;99.90
19220;DHT22;9744;49.364;7.484;2023-03-21T10:20:29;10.60;99.90
19220;DHT22;9744;49.364;7.484;2023-03-21T10:22:59;10.50;99.90
19220;DHT22;9744;49.364;7.484;2023-03-21T10:25:31;10.50;99.90
19220;DHT22;9744;49.364;7.484;2023-03-21T10:27:59;10.60;99.90
19220;DHT22;9744;49.364;7.484;2023-03-21T10:30:36;10.90;99.90
19220;DHT22;9744;49.364;7.484;2023-03-21T10:33:07;11.10;99.90
19220;DHT22;9744;49.364;7.484;2023-03-21T10:35:38;11.30;99.90
19220;DHT22;9744;49.364;7.484;2023-03-21T10:38:13;11.40;99.90
19220;DHT22;9744;49.364;7.484;2023-03-21T10:40:41;11.40;99.90
19220;DHT22;9744;49.364;7.484;2023-03-21T10:43:29;11.50;99.90
19220;DHT22;9744;49.364;7.484;2023-03-21T10:46:05;11.60;99.90
19220;DHT22;9744;49.364;7.484;2023-03-21T10:48:35;12.00;99.90
19220;DHT22;9744;49.364;7.484;2023-03-21T10:51:06;12.40;99.90
19220;DHT22;9744;49.364;7.484;2023-03-21T10:53:37;12.30;99.90
19220;DHT22;9744;49.364;7.484;2023-03-21T10:56:08;12.20;99.90
19220;DHT22;9744;49.364;7.484;2023-03-21T10:58:40;12.20;99.90
19220;DHT22;9744;49.364;7.484;2023-03-21T11:01:13;12.30;99.90
19220;DHT22;9744;49.364;7.484;2023-03-21T11:03:43;12.50;99.90
19220;DHT22;9744;49.364;7.484;2023-03-21T11:06:16;12.90;99.90
19220;DHT22;9744;49.364;7.484;2023-03-21T11:08:50;13.00;99.90
19220;DHT22;9744;49.364;7.484;2023-03-21T11:11:24;13.00;99.90
19220;DHT22;9744;49.364;7.484;2023-03-21T11:13:57;12.90;99.90
19220;DHT22;9744;49.364;7.484;2023-03-21T11:16:36;12.90;99.90
19220;DHT22;9744;49.364;7.484;2023-03-21T11:19:13;12.80;99.90
19220;DHT22;9744;49.364;7.484;2023-03-21T11:21:45;12.80;99.90
19220;DHT22;9744;49.364;7.484;2023-03-21T11:24:14;12.40;99.90
19220;DHT22;9744;49.364;7.484;2023-03-21T11:26:47;12.10;99.90
19220;DHT22;9744;49.364;7.484;2023-03-21T11:29:27;12.00;99.90
19220;DHT22;9744;49.364;7.484;2023-03-21T11:31:59;12.00;99.90
19220;DHT22;9744;49.364;7.484;2023-03-21T11:34:31;11.90;99.90
19220;DHT22;9744;49.364;7.484;2023-03-21T11:37:02;11.80;99.90
19220;DHT22;9744;49.364;7.484;2023-03-21T11:39:35;11.70;99.90
19220;DHT22;9744;49.364;7.484;2023-03-21T11:42:27;11.80;99.90
19220;DHT22;9744;49.364;7.484;2023-03-21T11:45:10;11.80;99.90
19220;DHT22;9744;49.364;7.484;2023-03-21T11:47:40;11.70;99.90
19220;DHT22;9744;49.364;7.484;2023-03-21T11:50:20;11.70;99.90
19220;DHT22;9744;49.364;7.484;2023-03-21T11:53:19;11.60;99.90
19220;DHT22;9744;49.364;7.484;2023-03-21T11:55:58;11.40;99.90
19220;DHT22;9744;49.364;7.484;2023-03-21T11:58:35;11.60;99.90
19220;DHT22;9744;49.364;7.484;2023-03-21T12:01:08;11.60;99.90
19220;DHT22;9744;49.364;7.484;2023-03-21T12:04:04;11.50;99.90
19220;DHT22;9744;49.364;7.484;2023-03-21T12:06:36;11.40;99.90
19220;DHT22;9744;49.364;7.484;2023-03-21T12:09:22;11.40;99.90
19220;DHT22;9744;49.364;7.484;2023-03-21T12:12:06;11.30;99.90
19220;DHT22;9744;49.364;7.484;2023-03-21T12:14:41;11.30;99.90
19220;DHT22;9744;49.364;7.484;2023-03-21T12:17:20;11.30;99.90
19220;DHT22;9744;49.364;7.484;2023-03-21T12:23:06;11.10;99.90
19220;DHT22;9744;49.364;7.484;2023-03-21T12:25:41;11.10;99.90
19220;DHT22;9744;49.364;7.484;2023-03-21T12:28:21;11.10;99.90
19220;DHT22;9744;49.364;7.484;2023-03-21T12:30:56;11.10;99.90
19220;DHT22;9744;49.364;7.484;2023-03-21T12:33:58;11.10;99.90
19220;DHT22;9744;49.364;7.484;2023-03-21T12:36:58;11.00;99.90
19220;DHT22;9744;49.364;7.484;2023-03-21T12:40:07;11.00;99.90
19220;DHT22;9744;49.364;7.484;2023-03-21T12:42:54;11.00;99.90
19220;DHT22;9744;49.364;7.484;2023-03-21T12:45:25;10.90;99.90
19220;DHT22;9744;49.364;7.484;2023-03-21T12:48:05;10.90;99.90
19220;DHT22;9744;49.364;7.484;2023-03-21T12:50:37;10.90;99.90
19220;DHT22;9744;49.364;7.484;2023-03-21T12:53:11;11.00;99.90
19220;DHT22;9744;49.364;7.484;2023-03-21T12:55:42;10.90;99.90
19220;DHT22;9744;49.364;7.484;2023-03-21T12:58:13;10.80;99.90
19220;DHT22;9744;49.364;7.484;2023-03-21T13:00:44;10.80;99.90
19220;DHT22;9744;49.364;7.484;2023-03-21T13:03:15;10.80;99.90
19220;DHT22;9744;49.364;7.484;2023-03-21T13:05:50;10.80;99.90
19220;DHT22;9744;49.364;7.484;2023-03-21T13:08:23;10.90;99.90
19220;DHT22;9744;49.364;7.484;2023-03-21T13:10:54;10.80;99.90
19220;DHT22;9744;49.364;7.484;2023-03-21T13:13:25;10.70;99.90
19220;DHT22;9744;49.364;7.484;2023-03-21T13:16:02;10.80;99.90
19220;DHT22;9744;49.364;7.484;2023-03-21T13:18:37;10.90;99.90
19220;DHT22;9744;49.364;7.484;2023-03-21T13:21:11;11.00;99.90
19220;DHT22;9744;49.364;7.484;2023-03-21T13:23:54;11.00;99.90
19220;DHT22;9744;49.364;7.484;2023-03-21T13:29:49;11.10;99.90
19220;DHT22;9744;49.364;7.484;2023-03-21T13:32:28;11.00;99.90
19220;DHT22;9744;49.364;7.484;2023-03-21T13:34:58;11.00;99.90
19220;DHT22;9744;49.364;7.484;2023-03-21T13:37:29;10.90;99.90
19220;DHT22;9744;49.364;7.484;2023-03-21T13:40:00;10.90;99.90
19220;DHT22;9744;49.364;7.484;2023-03-21T13:42:39;10.90;99.90
19220;DHT22;9744;49.364;7.484;2023-03-21T13:45:11;10.70;99.90
19220;DHT22;9744;49.364;7.484;2023-03-21T13:47:53;10.70;99.90
19220;DHT22;9744;49.364;7.484;2023-03-21T13:50:32;10.70;99.90
19220;DHT22;9744;49.364;7.484;2023-03-21T13:53:19;10.80;99.90
19220;DHT22;9744;49.364;7.484;2023-03-21T13:58:51;10.60;99.90
19220;DHT22;9744;49.364;7.484;2023-03-21T14:01:35;10.50;99.90
19220;DHT22;9744;49.364;7.484;2023-03-21T14:04:14;10.50;99.90
19220;DHT22;9744;49.364;7.484;2023-03-21T14:06:45;10.50;99.90
19220;DHT22;9744;49.364;7.484;2023-03-21T14:09:20;10.50;99.90
19220;DHT22;9744;49.364;7.484;2023-03-21T14:11:50;10.50;99.90
19220;DHT22;9744;49.364;7.484;2023-03-21T14:14:20;10.50;99.90
19220;DHT22;9744;49.364;7.484;2023-03-21T14:16:51;10.60;99.90
19220;DHT22;9744;49.364;7.484;2023-03-21T14:19:18;10.60;99.90
19220;DHT22;9744;49.364;7.484;2023-03-21T14:21:48;10.70;99.90
19220;DHT22;9744;49.364;7.484;2023-03-21T14:24:19;10.80;99.90
19220;DHT22;9744;49.364;7.484;2023-03-21T14:26:49;10.80;99.90
19220;DHT22;9744;49.364;7.484;2023-03-21T14:29:21;10.80;99.90
19220;DHT22;9744;49.364;7.484;2023-03-21T14:31:50;10.80;99.90
19220;DHT22;9744;49.364;7.484;2023-03-21T14:34:17;10.80;99.90
19220;DHT22;9744;49.364;7.484;2023-03-21T14:36:46;10.80;99.90
19220;DHT22;9744;49.364;7.484;2023-03-21T14:39:15;10.80;99.90
19220;DHT22;9744;49.364;7.484;2023-03-21T14:41:45;10.90;99.90
19220;DHT22;9744;49.364;7.484;2023-03-21T14:44:19;10.80;99.90
19220;DHT22;9744;49.364;7.484;2023-03-21T14:47:01;10.90;99.90
19220;DHT22;9744;49.364;7.484;2023-03-21T14:49:30;10.90;99.90
19220;DHT22;9744;49.364;7.484;2023-03-21T14:52:00;10.80;99.90
19220;DHT22;9744;49.364;7.484;2023-03-21T14:54:28;10.80;99.90
19220;DHT22;9744;49.364;7.484;2023-03-21T14:56:59;10.90;99.90
19220;DHT22;9744;49.364;7.484;2023-03-21T14:59:31;10.90;99.90
19220;DHT22;9744;49.364;7.484;2023-03-21T15:02:02;10.90;99.90
19220;DHT22;9744;49.364;7.484;2023-03-21T15:04:31;10.90;99.90
19220;DHT22;9744;49.364;7.484;2023-03-21T15:07:01;11.00;99.90
19220;DHT22;9744;49.364;7.484;2023-03-21T15:09:32;11.00;99.90
19220;DHT22;9744;49.364;7.484;2023-03-21T15:12:00;11.00;99.90
19220;DHT22;9744;49.364;7.484;2023-03-21T15:14:34;11.10;99.90
19220;DHT22;9744;49.364;7.484;2023-03-21T15:17:03;11.20;99.90
19220;DHT22;9744;49.364;7.484;2023-03-21T15:19:34;11.20;99.90
19220;DHT22;9744;49.364;7.484;2023-03-21T15:22:07;11.30;99.90
19220;DHT22;9744;49.364;7.484;2023-03-21T15:24:39;11.30;99.90
19220;DHT22;9744;49.364;7.484;2023-03-21T15:27:12;11.30;99.90
19220;DHT22;9744;49.364;7.484;2023-03-21T15:29:41;11.30;99.90
19220;DHT22;9744;49.364;7.484;2023-03-21T15:32:15;11.40;99.90
19220;DHT22;9744;49.364;7.484;2023-03-21T15:34:46;11.40;99.90
19220;DHT22;9744;49.364;7.484;2023-03-21T15:37:16;11.50;99.90
19220;DHT22;9744;49.364;7.484;2023-03-21T15:39:44;11.50;99.90
19220;DHT22;9744;49.364;7.484;2023-03-21T15:42:25;11.50;99.90
19220;DHT22;9744;49.364;7.484;2023-03-21T15:44:55;11.50;99.90
19220;DHT22;9744;49.364;7.484;2023-03-21T15:47:38;11.60;99.90
19220;DHT22;9744;49.364;7.484;2023-03-21T15:50:07;11.60;99.90
19220;DHT22;9744;49.364;7.484;2023-03-21T15:52:42;11.60;99.90
19220;DHT22;9744;49.364;7.484;2023-03-21T15:55:21;11.50;99.90
19220;DHT22;9744;49.364;7.484;2023-03-21T15:57:51;11.60;99.90
19220;DHT22;9744;49.364;7.484;2023-03-21T16:00:26;11.50;99.90
19220;DHT22;9744;49.364;7.484;2023-03-21T16:03:02;11.50;99.90
19220;DHT22;9744;49.364;7.484;2023-03-21T16:05:32;11.60;99.90
19220;DHT22;9744;49.364;7.484;2023-03-21T16:08:04;11.60;99.90
19220;DHT22;9744;49.364;7.484;2023-03-21T16:10:35;11.60;99.90
19220;DHT22;9744;49.364;7.484;2023-03-21T16:13:03;11.60;99.90
19220;DHT22;9744;49.364;7.484;2023-03-21T16:15:31;11.60;99.90
19220;DHT22;9744;49.364;7.484;2023-03-21T16:18:01;11.60;99.90
19220;DHT22;9744;49.364;7.484;2023-03-21T16:20:33;11.60;99.90
19220;DHT22;9744;49.364;7.484;2023-03-21T16:23:01;11.60;99.90
19220;DHT22;9744;49.364;7.484;2023-03-21T16:25:29;11.50;99.90
19220;DHT22;9744;49.364;7.484;2023-03-21T16:27:58;11.50;99.90
19220;DHT22;9744;49.364;7.484;2023-03-21T16:30:25;11.50;99.90
19220;DHT22;9744;49.364;7.484;2023-03-21T16:32:52;11.50;99.90
19220;DHT22;9744;49.364;7.484;2023-03-21T16:35:21;11.50;99.90
19220;DHT22;9744;49.364;7.484;2023-03-21T16:38:06;11.50;99.90
19220;DHT22;9744;49.364;7.484;2023-03-21T16:40:35;11.50;99.90
19220;DHT22;9744;49.364;7.484;2023-03-21T16:43:03;11.50;99.90